sensor_id;sensor_type;location;lat;lon;timestamp;temperature;humidity
23801;DHT22;12081;48.614;10.226;2023-03-23T00:00:20;9.50;99.90
23801;DHT22;12081;48.614;10.226;2023-03-23T00:03:05;9.50;99.90
23801;DHT22;12081;48.614;10.226;2023-03-23T00:05:50;9.40;99.90
23801;DHT22;12081;48.614;10.226;2023-03-23T00:08:37;9.40;99.90
23801;DHT22;12081;48.614;10.226;2023-03-23T00:11:23;9.30;99.90
23801;DHT22;12081;48.614;10.226;2023-03-23T00:14:09;9.20;99.90
23801;DHT22;12081;48.614;10.226;2023-03-23T00:16:56;9.20;99.90
23801;DHT22;12081;48.614;10.226;2023-03-23T00:19:41;9.10;99.90
23801;DHT22;12081;48.614;10.226;2023-03-23T00:22:31;9.00;99.90
23801;DHT22;12081;48.614;10.226;2023-03-23T00:25:21;8.90;99.90
23801;DHT22;12081;48.614;10.226;2023-03-23T00:28:05;8.90;99.90
23801;DHT22;12081;48.614;10.226;2023-03-23T00:30:49;8.90;99.90
23801;DHT22;12081;48.614;10.226;2023-03-23T00:33:36;8.90;99.90
23801;DHT22;12081;48.614;10.226;2023-03-23T00:36:24;9.00;99.90
23801;DHT22;12081;48.614;10.226;2023-03-23T00:39:10;9.00;99.90
23801;DHT22;12081;48.614;10.226;2023-03-23T00:41:55;9.10;99.90
23801;DHT22;12081;48.614;10.226;2023-03-23T00:44:44;9.20;99.90
23801;DHT22;12081;48.614;10.226;2023-03-23T00:47:30;9.20;99.90
23801;DHT22;12081;48.614;10.226;2023-03-23T00:50:14;9.20;99.90
23801;DHT22;12081;48.614;10.226;2023-03-23T00:52:58;9.10;99.90
23801;DHT22;12081;48.614;10.226;2023-03-23T00:55:46;9.10;99.90
23801;DHT22;12081;48.614;10.226;2023-03-23T00:58:31;9.00;99.90
23801;DHT22;12081;48.614;10.226;2023-03-23T01:01:15;10.10;99.90
23801;DHT22;12081;48.614;10.226;2023-03-23T01:04:00;8.90;99.90
23801;DHT22;12081;48.614;10.226;2023-03-23T01:06:46;8.90;99.90
23801;DHT22;12081;48.614;10.226;2023-03-23T01:09:32;8.90;99.90
23801;DHT22;12081;48.614;10.226;2023-03-23T01:12:16;8.90;99.90
23801;DHT22;12081;48.614;10.226;2023-03-23T01:15:00;9.00;99.90
23801;DHT22;12081;48.614;10.226;2023-03-23T01:17:44;8.90;99.90
23801;DHT22;12081;48.614;10.226;2023-03-23T01:20:29;8.90;99.90
23801;DHT22;12081;48.614;10.226;2023-03-23T01:23:15;8.90;99.90
23801;DHT22;12081;48.614;10.226;2023-03-23T01:26:03;8.90;99.90
23801;DHT22;12081;48.614;10.226;2023-03-23T01:28:47;8.90;99.90
23801;DHT22;12081;48.614;10.226;2023-03-23T01:31:32;8.90;99.90
23801;DHT22;12081;48.614;10.226;2023-03-23T01:34:17;9.00;99.90
23801;DHT22;12081;48.614;10.226;2023-03-23T01:37:01;9.10;99.90
23801;DHT22;12081;48.614;10.226;2023-03-23T01:39:45;9.10;99.90
23801;DHT22;12081;48.614;10.226;2023-03-23T01:42:32;9.10;99.90
23801;DHT22;12081;48.614;10.226;2023-03-23T01:45:27;9.00;99.90
23801;DHT22;12081;48.614;10.226;2023-03-23T01:48:32;9.10;99.90
23801;DHT22;12081;48.614;10.226;2023-03-23T01:51:18;9.00;99.90
23801;DHT22;12081;48.614;10.226;2023-03-23T01:54:06;9.00;99.90
23801;DHT22;12081;48.614;10.226;2023-03-23T01:56:58;8.90;99.90
23801;DHT22;12081;48.614;10.226;2023-03-23T01:59:45;8.80;99.90
23801;DHT22;12081;48.614;10.226;2023-03-23T02:02:31;8.80;99.90
23801;DHT22;12081;48.614;10.226;2023-03-23T02:05:30;8.70;99.90
23801;DHT22;12081;48.614;10.226;2023-03-23T02:08:18;8.70;99.90
23801;DHT22;12081;48.614;10.226;2023-03-23T02:11:12;8.70;99.90
23801;DHT22;12081;48.614;10.226;2023-03-23T02:13:58;8.70;99.90
23801;DHT22;12081;48.614;10.226;2023-03-23T02:17:02;8.70;99.90
23801;DHT22;12081;48.614;10.226;2023-03-23T02:26:01;8.60;99.90
23801;DHT22;12081;48.614;10.226;2023-03-23T02:29:11;8.70;99.90
23801;DHT22;12081;48.614;10.226;2023-03-23T02:32:04;8.60;99.90
23801;DHT22;12081;48.614;10.226;2023-03-23T02:34:59;8.70;99.90
23801;DHT22;12081;48.614;10.226;2023-03-23T02:37:52;8.60;99.90
23801;DHT22;12081;48.614;10.226;2023-03-23T02:40:48;8.50;99.90
23801;DHT22;12081;48.614;10.226;2023-03-23T02:46:08;8.30;99.90
23801;DHT22;12081;48.614;10.226;2023-03-23T02:48:55;10.40;99.90
23801;DHT22;12081;48.614;10.226;2023-03-23T02:51:44;10.20;99.90
23801;DHT22;12081;48.614;10.226;2023-03-23T02:54:29;8.50;99.90
23801;DHT22;12081;48.614;10.226;2023-03-23T02:57:14;8.30;99.90
23801;DHT22;12081;48.614;10.226;2023-03-23T02:59:58;9.20;99.90
23801;DHT22;12081;48.614;10.226;2023-03-23T03:02:44;10.70;99.90
23801;DHT22;12081;48.614;10.226;2023-03-23T03:08:52;9.90;99.90
23801;DHT22;12081;48.614;10.226;2023-03-23T03:11:38;8.40;99.90
23801;DHT22;12081;48.614;10.226;2023-03-23T03:14:30;8.40;99.90
23801;DHT22;12081;48.614;10.226;2023-03-23T03:17:26;9.80;99.90
23801;DHT22;12081;48.614;10.226;2023-03-23T03:20:14;9.70;99.90
23801;DHT22;12081;48.614;10.226;2023-03-23T03:22:59;9.70;99.90
23801;DHT22;12081;48.614;10.226;2023-03-23T03:25:45;8.60;99.90
23801;DHT22;12081;48.614;10.226;2023-03-23T03:28:32;10.50;99.90
23801;DHT22;12081;48.614;10.226;2023-03-23T03:31:19;8.80;99.90
23801;DHT22;12081;48.614;10.226;2023-03-23T03:34:05;10.30;99.90
23801;DHT22;12081;48.614;10.226;2023-03-23T03:36:53;9.40;99.90
23801;DHT22;12081;48.614;10.226;2023-03-23T03:39:38;8.80;99.90
23801;DHT22;12081;48.614;10.226;2023-03-23T03:42:23;8.50;99.90
23801;DHT22;12081;48.614;10.226;2023-03-23T03:45:08;10.70;99.90
23801;DHT22;12081;48.614;10.226;2023-03-23T03:47:52;8.90;99.90
23801;DHT22;12081;48.614;10.226;2023-03-23T03:50:37;10.70;99.90
23801;DHT22;12081;48.614;10.226;2023-03-23T03:53:24;10.30;99.90
23801;DHT22;12081;48.614;10.226;2023-03-23T03:56:08;8.70;99.90
23801;DHT22;12081;48.614;10.226;2023-03-23T03:58:53;8.60;99.90
23801;DHT22;12081;48.614;10.226;2023-03-23T04:01:38;8.70;99.90
23801;DHT22;12081;48.614;10.226;2023-03-23T04:04:23;10.90;99.90
23801;DHT22;12081;48.614;10.226;2023-03-23T04:07:07;10.60;99.90
23801;DHT22;12081;48.614;10.226;2023-03-23T04:09:54;11.00;99.90
23801;DHT22;12081;48.614;10.226;2023-03-23T04:12:39;10.30;99.90
23801;DHT22;12081;48.614;10.226;2023-03-23T04:15:23;8.90;99.90
23801;DHT22;12081;48.614;10.226;2023-03-23T04:18:07;11.20;99.90
23801;DHT22;12081;48.614;10.226;2023-03-23T04:20:52;9.00;99.90
23801;DHT22;12081;48.614;10.226;2023-03-23T04:23:36;10.10;99.90
23801;DHT22;12081;48.614;10.226;2023-03-23T04:26:21;10.00;99.90
23801;DHT22;12081;48.614;10.226;2023-03-23T04:29:05;9.10;99.90
23801;DHT22;12081;48.614;10.226;2023-03-23T04:31:49;10.10;99.90
23801;DHT22;12081;48.614;10.226;2023-03-23T04:34:36;11.50;99.90
23801;DHT22;12081;48.614;10.226;2023-03-23T04:37:20;9.70;99.90
23801;DHT22;12081;48.614;10.226;2023-03-23T04:40:12;11.60;99.90
23801;DHT22;12081;48.614;10.226;2023-03-23T04:42:58;9.10;99.90
23801;DHT22;12081;48.614;10.226;2023-03-23T04:45:53;9.00;99.90
23801;DHT22;12081;48.614;10.226;2023-03-23T04:48:40;11.60;99.90
23801;DHT22;12081;48.614;10.226;2023-03-23T04:51:26;11.50;99.90
23801;DHT22;12081;48.614;10.226;2023-03-23T04:54:10;11.30;99.90
23801;DHT22;12081;48.614;10.226;2023-03-23T04:56:55;11.10;99.90
23801;DHT22;12081;48.614;10.226;2023-03-23T04:59:39;11.00;99.90
23801;DHT22;12081;48.614;10.226;2023-03-23T05:02:25;10.50;99.90
23801;DHT22;12081;48.614;10.226;2023-03-23T05:05:11;11.70;99.90
23801;DHT22;12081;48.614;10.226;2023-03-23T05:07:56;11.60;99.90
23801;DHT22;12081;48.614;10.226;2023-03-23T05:10:40;11.90;99.90
23801;DHT22;12081;48.614;10.226;2023-03-23T05:13:27;9.30;99.90
23801;DHT22;12081;48.614;10.226;2023-03-23T05:16:11;11.50;99.90
23801;DHT22;12081;48.614;10.226;2023-03-23T05:18:56;11.60;99.90
23801;DHT22;12081;48.614;10.226;2023-03-23T05:21:43;11.40;99.90
23801;DHT22;12081;48.614;10.226;2023-03-23T05:24:32;11.70;99.90
23801;DHT22;12081;48.614;10.226;2023-03-23T05:27:17;11.40;99.90
23801;DHT22;12081;48.614;10.226;2023-03-23T05:30:04;11.10;99.90
23801;DHT22;12081;48.614;10.226;2023-03-23T05:32:49;9.10;99.90
23801;DHT22;12081;48.614;10.226;2023-03-23T05:35:37;11.50;99.90
23801;DHT22;12081;48.614;10.226;2023-03-23T05:38:21;11.10;99.90
23801;DHT22;12081;48.614;10.226;2023-03-23T05:41:06;9.20;99.90
23801;DHT22;12081;48.614;10.226;2023-03-23T05:43:52;11.30;99.90
23801;DHT22;12081;48.614;10.226;2023-03-23T05:46:36;11.50;99.90
23801;DHT22;12081;48.614;10.226;2023-03-23T05:49:21;11.50;99.90
23801;DHT22;12081;48.614;10.226;2023-03-23T05:52:05;11.70;99.90
23801;DHT22;12081;48.614;10.226;2023-03-23T05:54:50;12.00;99.90
23801;DHT22;12081;48.614;10.226;2023-03-23T05:57:35;11.20;99.90
23801;DHT22;12081;48.614;10.226;2023-03-23T06:00:20;11.90;99.90
23801;DHT22;12081;48.614;10.226;2023-03-23T06:03:07;9.50;99.90
23801;DHT22;12081;48.614;10.226;2023-03-23T06:05:51;11.80;99.90
23801;DHT22;12081;48.614;10.226;2023-03-23T06:08:36;11.80;99.90
23801;DHT22;12081;48.614;10.226;2023-03-23T06:11:24;10.40;99.90
23801;DHT22;12081;48.614;10.226;2023-03-23T06:14:09;9.60;99.90
23801;DHT22;12081;48.614;10.226;2023-03-23T06:16:53;11.90;99.90
23801;DHT22;12081;48.614;10.226;2023-03-23T06:19:37;11.90;99.90
23801;DHT22;12081;48.614;10.226;2023-03-23T06:22:21;9.70;99.90
23801;DHT22;12081;48.614;10.226;2023-03-23T06:25:07;11.60;99.90
23801;DHT22;12081;48.614;10.226;2023-03-23T06:27:51;9.80;99.90
23801;DHT22;12081;48.614;10.226;2023-03-23T06:30:38;12.10;99.90
23801;DHT22;12081;48.614;10.226;2023-03-23T06:33:24;10.60;99.90
23801;DHT22;12081;48.614;10.226;2023-03-23T06:36:08;11.70;99.90
23801;DHT22;12081;48.614;10.226;2023-03-23T06:38:55;10.10;99.90
23801;DHT22;12081;48.614;10.226;2023-03-23T06:41:40;10.20;99.90
23801;DHT22;12081;48.614;10.226;2023-03-23T06:44:24;10.20;99.90
23801;DHT22;12081;48.614;10.226;2023-03-23T06:47:09;10.20;99.90
23801;DHT22;12081;48.614;10.226;2023-03-23T06:49:53;10.30;99.90
23801;DHT22;12081;48.614;10.226;2023-03-23T06:52:37;10.30;99.90
23801;DHT22;12081;48.614;10.226;2023-03-23T06:55:21;10.40;99.90
23801;DHT22;12081;48.614;10.226;2023-03-23T06:58:05;10.50;99.90
23801;DHT22;12081;48.614;10.226;2023-03-23T07:00:54;10.60;99.90
23801;DHT22;12081;48.614;10.226;2023-03-23T07:03:40;10.70;99.90
23801;DHT22;12081;48.614;10.226;2023-03-23T07:06:25;11.80;99.90
23801;DHT22;12081;48.614;10.226;2023-03-23T07:09:10;11.30;99.90
23801;DHT22;12081;48.614;10.226;2023-03-23T07:11:54;11.10;99.90
23801;DHT22;12081;48.614;10.226;2023-03-23T07:14:38;11.30;99.90
23801;DHT22;12081;48.614;10.226;2023-03-23T07:17:22;11.40;99.90
23801;DHT22;12081;48.614;10.226;2023-03-23T07:20:07;11.50;99.90
23801;DHT22;12081;48.614;10.226;2023-03-23T07:22:53;11.60;99.90
23801;DHT22;12081;48.614;10.226;2023-03-23T07:25:37;14.70;99.90
23801;DHT22;12081;48.614;10.226;2023-03-23T07:28:22;11.80;99.90
23801;DHT22;12081;48.614;10.226;2023-03-23T07:31:07;11.90;99.90
23801;DHT22;12081;48.614;10.226;2023-03-23T07:33:52;12.10;99.90
23801;DHT22;12081;48.614;10.226;2023-03-23T07:36:37;12.20;99.90
23801;DHT22;12081;48.614;10.226;2023-03-23T07:39:21;12.40;99.90
23801;DHT22;12081;48.614;10.226;2023-03-23T07:42:08;12.50;99.90
23801;DHT22;12081;48.614;10.226;2023-03-23T07:44:52;12.80;99.90
23801;DHT22;12081;48.614;10.226;2023-03-23T07:47:37;12.90;99.90
23801;DHT22;12081;48.614;10.226;2023-03-23T07:50:21;12.90;99.90
23801;DHT22;12081;48.614;10.226;2023-03-23T07:53:08;13.00;99.90
23801;DHT22;12081;48.614;10.226;2023-03-23T07:55:52;12.90;99.90
23801;DHT22;12081;48.614;10.226;2023-03-23T07:58:37;12.90;99.90
23801;DHT22;12081;48.614;10.226;2023-03-23T08:01:21;12.80;99.90
23801;DHT22;12081;48.614;10.226;2023-03-23T08:04:07;12.80;99.90
23801;DHT22;12081;48.614;10.226;2023-03-23T08:06:51;12.80;99.90
23801;DHT22;12081;48.614;10.226;2023-03-23T08:09:36;12.80;99.90
23801;DHT22;12081;48.614;10.226;2023-03-23T08:12:21;12.80;99.90
23801;DHT22;12081;48.614;10.226;2023-03-23T08:15:06;12.80;99.90
23801;DHT22;12081;48.614;10.226;2023-03-23T08:17:50;12.70;99.90
23801;DHT22;12081;48.614;10.226;2023-03-23T08:20:35;16.50;99.90
23801;DHT22;12081;48.614;10.226;2023-03-23T08:23:20;12.70;99.90
23801;DHT22;12081;48.614;10.226;2023-03-23T08:26:06;12.60;99.90
23801;DHT22;12081;48.614;10.226;2023-03-23T08:28:51;12.50;99.90
23801;DHT22;12081;48.614;10.226;2023-03-23T08:31:35;12.40;99.90
23801;DHT22;12081;48.614;10.226;2023-03-23T08:34:20;12.30;99.90
23801;DHT22;12081;48.614;10.226;2023-03-23T08:37:04;12.40;99.90
23801;DHT22;12081;48.614;10.226;2023-03-23T08:39:53;12.40;99.90
23801;DHT22;12081;48.614;10.226;2023-03-23T08:42:42;12.60;99.90
23801;DHT22;12081;48.614;10.226;2023-03-23T08:45:26;12.70;99.90
23801;DHT22;12081;48.614;10.226;2023-03-23T08:48:12;12.80;99.90
23801;DHT22;12081;48.614;10.226;2023-03-23T08:50:56;13.00;99.90
23801;DHT22;12081;48.614;10.226;2023-03-23T08:53:40;13.10;99.90
23801;DHT22;12081;48.614;10.226;2023-03-23T08:56:24;13.20;99.90
23801;DHT22;12081;48.614;10.226;2023-03-23T08:59:08;13.40;99.90
23801;DHT22;12081;48.614;10.226;2023-03-23T09:01:54;13.50;99.90
23801;DHT22;12081;48.614;10.226;2023-03-23T09:04:39;13.90;99.90
23801;DHT22;12081;48.614;10.226;2023-03-23T09:07:26;13.90;99.90
23801;DHT22;12081;48.614;10.226;2023-03-23T09:10:10;14.40;99.90
23801;DHT22;12081;48.614;10.226;2023-03-23T09:12:55;14.80;99.90
23801;DHT22;12081;48.614;10.226;2023-03-23T09:15:40;14.70;99.90
23801;DHT22;12081;48.614;10.226;2023-03-23T09:18:24;14.90;99.90
23801;DHT22;12081;48.614;10.226;2023-03-23T09:21:09;15.00;99.90
23801;DHT22;12081;48.614;10.226;2023-03-23T09:23:54;15.00;99.90
23801;DHT22;12081;48.614;10.226;2023-03-23T09:26:41;15.00;99.90
23801;DHT22;12081;48.614;10.226;2023-03-23T09:29:26;15.30;99.90
23801;DHT22;12081;48.614;10.226;2023-03-23T09:32:10;15.40;99.90
23801;DHT22;12081;48.614;10.226;2023-03-23T09:34:57;15.40;99.90
23801;DHT22;12081;48.614;10.226;2023-03-23T09:37:41;15.60;99.30
23801;DHT22;12081;48.614;10.226;2023-03-23T09:40:58;15.90;99.20
23801;DHT22;12081;48.614;10.226;2023-03-23T09:49:56;15.90;97.00
23801;DHT22;12081;48.614;10.226;2023-03-23T09:52:47;15.80;97.60
23801;DHT22;12081;48.614;10.226;2023-03-23T09:55:34;15.80;97.30
23801;DHT22;12081;48.614;10.226;2023-03-23T09:58:42;15.80;98.10
23801;DHT22;12081;48.614;10.226;2023-03-23T10:01:33;15.70;97.70
23801;DHT22;12081;48.614;10.226;2023-03-23T10:07:20;15.50;98.40
23801;DHT22;12081;48.614;10.226;2023-03-23T10:10:05;16.70;99.90
23801;DHT22;12081;48.614;10.226;2023-03-23T10:16:11;15.50;99.50
23801;DHT22;12081;48.614;10.226;2023-03-23T10:19:18;15.70;98.90
23801;DHT22;12081;48.614;10.226;2023-03-23T10:22:09;17.10;99.70
23801;DHT22;12081;48.614;10.226;2023-03-23T10:25:00;17.30;99.20
23801;DHT22;12081;48.614;10.226;2023-03-23T10:28:09;18.10;98.90
23801;DHT22;12081;48.614;10.226;2023-03-23T10:30:58;16.80;98.20
23801;DHT22;12081;48.614;10.226;2023-03-23T10:33:47;17.60;97.70
23801;DHT22;12081;48.614;10.226;2023-03-23T10:37:26;17.20;96.70
23801;DHT22;12081;48.614;10.226;2023-03-23T10:39:56;16.70;96.60
23801;DHT22;12081;48.614;10.226;2023-03-23T10:42:43;19.30;97.50
23801;DHT22;12081;48.614;10.226;2023-03-23T10:45:30;17.40;93.60
23801;DHT22;12081;48.614;10.226;2023-03-23T10:48:25;18.70;94.00
23801;DHT22;12081;48.614;10.226;2023-03-23T10:51:12;18.70;94.50
23801;DHT22;12081;48.614;10.226;2023-03-23T10:54:00;19.40;93.50
23801;DHT22;12081;48.614;10.226;2023-03-23T10:56:46;19.00;91.90
23801;DHT22;12081;48.614;10.226;2023-03-23T10:59:31;19.20;92.20
23801;DHT22;12081;48.614;10.226;2023-03-23T11:02:42;16.50;91.70
23801;DHT22;12081;48.614;10.226;2023-03-23T11:05:36;19.30;93.00
23801;DHT22;12081;48.614;10.226;2023-03-23T11:08:30;15.50;93.50
23801;DHT22;12081;48.614;10.226;2023-03-23T11:11:20;15.90;94.40
23801;DHT22;12081;48.614;10.226;2023-03-23T11:14:14;16.90;96.30
23801;DHT22;12081;48.614;10.226;2023-03-23T11:17:02;18.00;96.10
23801;DHT22;12081;48.614;10.226;2023-03-23T11:19:46;16.80;96.40
23801;DHT22;12081;48.614;10.226;2023-03-23T11:22:33;17.70;97.20
23801;DHT22;12081;48.614;10.226;2023-03-23T11:25:19;17.00;96.30
23801;DHT22;12081;48.614;10.226;2023-03-23T11:28:05;18.00;97.10
23801;DHT22;12081;48.614;10.226;2023-03-23T11:30:53;16.80;96.80
23801;DHT22;12081;48.614;10.226;2023-03-23T11:33:57;16.60;97.30
23801;DHT22;12081;48.614;10.226;2023-03-23T11:39:57;16.00;99.50
23801;DHT22;12081;48.614;10.226;2023-03-23T11:43:08;15.90;99.00
23801;DHT22;12081;48.614;10.226;2023-03-23T11:49:05;15.80;99.50
23801;DHT22;12081;48.614;10.226;2023-03-23T11:51:59;15.90;98.20
23801;DHT22;12081;48.614;10.226;2023-03-23T11:54:52;17.30;99.90
23801;DHT22;12081;48.614;10.226;2023-03-23T11:57:37;17.30;99.20
23801;DHT22;12081;48.614;10.226;2023-03-23T12:00:23;16.90;99.90
23801;DHT22;12081;48.614;10.226;2023-03-23T12:12:36;17.10;99.90
23801;DHT22;12081;48.614;10.226;2023-03-23T12:15:38;15.60;99.90
23801;DHT22;12081;48.614;10.226;2023-03-23T12:22:05;16.00;99.90
23801;DHT22;12081;48.614;10.226;2023-03-23T12:25:19;18.10;99.40
23801;DHT22;12081;48.614;10.226;2023-03-23T12:35:02;18.90;90.80
23801;DHT22;12081;48.614;10.226;2023-03-23T12:38:07;20.40;82.70
23801;DHT22;12081;48.614;10.226;2023-03-23T12:43:51;18.60;83.20
23801;DHT22;12081;48.614;10.226;2023-03-23T12:49:56;18.80;84.70
23801;DHT22;12081;48.614;10.226;2023-03-23T12:52:57;20.60;85.00
23801;DHT22;12081;48.614;10.226;2023-03-23T12:55:46;17.90;84.10
23801;DHT22;12081;48.614;10.226;2023-03-23T12:58:38;18.40;87.00
23801;DHT22;12081;48.614;10.226;2023-03-23T13:01:30;19.20;89.70
23801;DHT22;12081;48.614;10.226;2023-03-23T13:04:42;18.90;90.00
23801;DHT22;12081;48.614;10.226;2023-03-23T13:07:33;19.60;90.50
23801;DHT22;12081;48.614;10.226;2023-03-23T13:10:25;18.50;88.10
23801;DHT22;12081;48.614;10.226;2023-03-23T13:13:17;19.50;90.40
23801;DHT22;12081;48.614;10.226;2023-03-23T13:16:21;18.70;91.40
23801;DHT22;12081;48.614;10.226;2023-03-23T13:19:22;18.20;90.50
23801;DHT22;12081;48.614;10.226;2023-03-23T13:22:35;15.00;90.90
23801;DHT22;12081;48.614;10.226;2023-03-23T13:26:18;15.60;91.20
23801;DHT22;12081;48.614;10.226;2023-03-23T13:29:15;15.30;91.90
23801;DHT22;12081;48.614;10.226;2023-03-23T13:32:18;19.20;92.70
23801;DHT22;12081;48.614;10.226;2023-03-23T13:35:05;18.90;92.70
23801;DHT22;12081;48.614;10.226;2023-03-23T13:37:56;14.90;91.70
23801;DHT22;12081;48.614;10.226;2023-03-23T13:40:47;16.40;93.30
23801;DHT22;12081;48.614;10.226;2023-03-23T13:43:34;17.00;93.90
23801;DHT22;12081;48.614;10.226;2023-03-23T13:49:19;16.70;94.30
23801;DHT22;12081;48.614;10.226;2023-03-23T13:52:16;18.70;94.80
23801;DHT22;12081;48.614;10.226;2023-03-23T13:55:51;18.40;94.90
23801;DHT22;12081;48.614;10.226;2023-03-23T13:59:14;18.00;95.30
23801;DHT22;12081;48.614;10.226;2023-03-23T14:02:29;16.20;96.30
23801;DHT22;12081;48.614;10.226;2023-03-23T14:10:53;16.10;95.30
23801;DHT22;12081;48.614;10.226;2023-03-23T14:16:32;18.30;96.10
23801;DHT22;12081;48.614;10.226;2023-03-23T14:19:42;16.20;95.80
23801;DHT22;12081;48.614;10.226;2023-03-23T14:22:35;17.00;96.40
23801;DHT22;12081;48.614;10.226;2023-03-23T14:25:32;17.90;95.30
23801;DHT22;12081;48.614;10.226;2023-03-23T14:28:20;16.60;95.00
23801;DHT22;12081;48.614;10.226;2023-03-23T14:34:04;16.40;93.70
23801;DHT22;12081;48.614;10.226;2023-03-23T14:36:54;17.70;94.50
23801;DHT22;12081;48.614;10.226;2023-03-23T14:39:44;16.70;94.00
23801;DHT22;12081;48.614;10.226;2023-03-23T14:42:35;16.80;93.50
23801;DHT22;12081;48.614;10.226;2023-03-23T14:45:21;15.10;92.60
23801;DHT22;12081;48.614;10.226;2023-03-23T14:48:06;16.40;93.90
23801;DHT22;12081;48.614;10.226;2023-03-23T14:50:52;17.20;94.80
23801;DHT22;12081;48.614;10.226;2023-03-23T14:54:12;17.30;94.70
23801;DHT22;12081;48.614;10.226;2023-03-23T14:57:25;15.60;95.60
23801;DHT22;12081;48.614;10.226;2023-03-23T15:00:20;15.30;95.10
23801;DHT22;12081;48.614;10.226;2023-03-23T15:06:36;16.70;95.20
23801;DHT22;12081;48.614;10.226;2023-03-23T15:09:22;17.80;95.90
23801;DHT22;12081;48.614;10.226;2023-03-23T15:12:34;17.50;95.20
23801;DHT22;12081;48.614;10.226;2023-03-23T15:18:34;16.70;96.20
23801;DHT22;12081;48.614;10.226;2023-03-23T15:21:29;18.20;97.30
23801;DHT22;12081;48.614;10.226;2023-03-23T15:24:32;16.40;97.90
23801;DHT22;12081;48.614;10.226;2023-03-23T15:27:24;16.30;97.70
23801;DHT22;12081;48.614;10.226;2023-03-23T15:33:10;16.20;97.80
23801;DHT22;12081;48.614;10.226;2023-03-23T15:35:56;17.60;99.10
23801;DHT22;12081;48.614;10.226;2023-03-23T15:38:50;16.70;98.70
23801;DHT22;12081;48.614;10.226;2023-03-23T15:41:46;17.20;99.60
23801;DHT22;12081;48.614;10.226;2023-03-23T15:44:35;16.90;99.50
23801;DHT22;12081;48.614;10.226;2023-03-23T15:47:32;14.60;99.90
23801;DHT22;12081;48.614;10.226;2023-03-23T15:53:25;18.40;99.90
23801;DHT22;12081;48.614;10.226;2023-03-23T15:56:12;16.00;99.90
23801;DHT22;12081;48.614;10.226;2023-03-23T15:58:57;17.40;99.90
23801;DHT22;12081;48.614;10.226;2023-03-23T16:01:43;18.40;99.90
23801;DHT22;12081;48.614;10.226;2023-03-23T16:04:33;18.40;99.90
23801;DHT22;12081;48.614;10.226;2023-03-23T16:07:21;18.10;99.90
23801;DHT22;12081;48.614;10.226;2023-03-23T16:10:10;15.90;99.90
23801;DHT22;12081;48.614;10.226;2023-03-23T16:12:58;15.80;99.90
23801;DHT22;12081;48.614;10.226;2023-03-23T16:15:43;17.90;99.90
23801;DHT22;12081;48.614;10.226;2023-03-23T16:18:29;17.00;99.90
23801;DHT22;12081;48.614;10.226;2023-03-23T16:21:14;15.80;99.90
23801;DHT22;12081;48.614;10.226;2023-03-23T16:23:58;17.10;99.90
23801;DHT22;12081;48.614;10.226;2023-03-23T16:27:10;16.50;99.90
23801;DHT22;12081;48.614;10.226;2023-03-23T16:30:26;14.30;99.90
23801;DHT22;12081;48.614;10.226;2023-03-23T16:33:11;16.80;99.90
23801;DHT22;12081;48.614;10.226;2023-03-23T16:38:41;15.20;99.90
23801;DHT22;12081;48.614;10.226;2023-03-23T16:44:10;15.10;99.90
23801;DHT22;12081;48.614;10.226;2023-03-23T16:46:55;14.90;99.70
23801;DHT22;12081;48.614;10.226;2023-03-23T16:49:39;15.00;99.30
23801;DHT22;12081;48.614;10.226;2023-03-23T16:52:23;14.90;99.30
23801;DHT22;12081;48.614;10.226;2023-03-23T16:55:09;14.90;99.20
23801;DHT22;12081;48.614;10.226;2023-03-23T16:57:54;14.80;99.40
23801;DHT22;12081;48.614;10.226;2023-03-23T17:03:23;14.70;99.80
23801;DHT22;12081;48.614;10.226;2023-03-23T17:06:20;14.60;99.90
23801;DHT22;12081;48.614;10.226;2023-03-23T17:09:04;14.50;99.90
23801;DHT22;12081;48.614;10.226;2023-03-23T17:11:49;14.50;99.90
23801;DHT22;12081;48.614;10.226;2023-03-23T17:17:18;14.40;99.90
23801;DHT22;12081;48.614;10.226;2023-03-23T17:20:03;14.30;99.90
23801;DHT22;12081;48.614;10.226;2023-03-23T17:22:48;14.30;99.90
23801;DHT22;12081;48.614;10.226;2023-03-23T17:25:32;14.20;99.90
23801;DHT22;12081;48.614;10.226;2023-03-23T17:28:16;14.20;99.90
23801;DHT22;12081;48.614;10.226;2023-03-23T17:36:29;14.00;99.90
23801;DHT22;12081;48.614;10.226;2023-03-23T17:39:14;13.90;99.90
23801;DHT22;12081;48.614;10.226;2023-03-23T17:41:59;13.80;99.90
23801;DHT22;12081;48.614;10.226;2023-03-23T17:44:44;13.80;99.90
23801;DHT22;12081;48.614;10.226;2023-03-23T17:47:28;13.70;99.90
23801;DHT22;12081;48.614;10.226;2023-03-23T17:50:12;13.70;99.90
23801;DHT22;12081;48.614;10.226;2023-03-23T17:52:56;13.70;99.90
23801;DHT22;12081;48.614;10.226;2023-03-23T17:55:41;13.70;99.90
23801;DHT22;12081;48.614;10.226;2023-03-23T17:58:26;13.60;99.90
23801;DHT22;12081;48.614;10.226;2023-03-23T18:03:55;13.50;99.90
23801;DHT22;12081;48.614;10.226;2023-03-23T18:06:39;13.50;99.90
23801;DHT22;12081;48.614;10.226;2023-03-23T18:09:24;13.40;99.90
23801;DHT22;12081;48.614;10.226;2023-03-23T18:14:56;13.30;99.90
23801;DHT22;12081;48.614;10.226;2023-03-23T18:17:41;13.20;99.90
23801;DHT22;12081;48.614;10.226;2023-03-23T18:23:13;13.10;99.90
23801;DHT22;12081;48.614;10.226;2023-03-23T18:25:57;13.10;99.90
23801;DHT22;12081;48.614;10.226;2023-03-23T18:28:42;13.20;99.90
23801;DHT22;12081;48.614;10.226;2023-03-23T18:36:56;12.80;99.90
23801;DHT22;12081;48.614;10.226;2023-03-23T18:39:40;12.70;99.90
23801;DHT22;12081;48.614;10.226;2023-03-23T18:45:10;12.60;99.90
23801;DHT22;12081;48.614;10.226;2023-03-23T18:47:54;12.60;99.90
23801;DHT22;12081;48.614;10.226;2023-03-23T18:53:24;12.60;99.90
23801;DHT22;12081;48.614;10.226;2023-03-23T18:56:11;12.60;99.90
23801;DHT22;12081;48.614;10.226;2023-03-23T18:58:55;12.60;99.90
23801;DHT22;12081;48.614;10.226;2023-03-23T19:01:40;12.60;99.90
23801;DHT22;12081;48.614;10.226;2023-03-23T19:04:24;12.70;99.90
23801;DHT22;12081;48.614;10.226;2023-03-23T19:07:08;12.70;99.90
23801;DHT22;12081;48.614;10.226;2023-03-23T19:26:27;12.80;99.90
23801;DHT22;12081;48.614;10.226;2023-03-23T19:29:17;12.70;99.90
23801;DHT22;12081;48.614;10.226;2023-03-23T19:34:47;12.70;99.90
23801;DHT22;12081;48.614;10.226;2023-03-23T19:37:31;12.70;99.90
23801;DHT22;12081;48.614;10.226;2023-03-23T19:43:00;12.80;99.90
23801;DHT22;12081;48.614;10.226;2023-03-23T19:45:44;12.80;99.90
23801;DHT22;12081;48.614;10.226;2023-03-23T19:48:28;12.80;99.90
23801;DHT22;12081;48.614;10.226;2023-03-23T19:51:19;12.70;99.90
23801;DHT22;12081;48.614;10.226;2023-03-23T19:54:04;12.80;99.90